Aérodrome :
LOGIN :

S'inscrire | Disclaimer

   EN    FR    IT 

 










Légende :    VFR   VFR Marginal   IFR   IFR Intensif   IFR Très Intensif
Visi : 
Plafond : 
>= 8 km
>= 3000ft
5 à 8 km
1000 à 3000 ft
1500m à 5 km
500 à 1000 ft
800 à 1500m
200 à 500 ft
< 800m
< 200 ft
Symboles :   Orages  Brouillard  Fortes neiges  Fortes précipitations  Vent > 20 kt
SIGMETs :   Divers  Orages  Givrage  Turbulence  Onde Orograph.  Cendres Volcan.







- Altitude de l'aérodrome : 423 ft
- Code IATA : PIS
- Voir les cartes d'approche


LFBI - Poitiers

DERNIER METAR :
  • 181800Z AUTO 01008KT 9999 FEW045 04/02 Q1029 NOSIG

METARs EXPIRÉS :
  • 181730Z AUTO 01008KT 9999 FEW042 05/02 Q1029 NOSIG
  • 181700Z AUTO 01007KT CAVOK 05/02 Q1028 NOSIG
  • 181630Z AUTO 02008KT CAVOK 05/02 Q1028 NOSIG
  • 181600Z AUTO 03011KT CAVOK 07/02 Q1028 NOSIG
  • 181530Z AUTO 03012KT 9999 FEW027 07/03 Q1027 NOSIG

TAF TAF LFBI
Valide du 18 à 18h jusqu'au 19 à 18h UTC


181700Z 1818/1918 03010KT CAVOK
BECMG 1819/1821 03005KT BKN020
PROB40
TEMPO 1822/1903 3000 BR
PROB40
TEMPO 1903/1909 1200 BCFG OVC004
Pas de NOTAMs connus pour ce terrain.
1 SIGMET publié pour la FIR Bordeaux (LFBB) :
 
Turbulence forte
LFBB SIGMET 2 VALID 181700/182100 LFPW
LFBB BORDEAUX FIR/UIR SEV TURB FCST WI N4300 E00230 - N4215 E00230 - N4245 W00100 - N4300 W00100 - N4300 E00230 SFC/FL150 STNR NC=



MET'MAP, la Météo Aéronautique d'un coup d'oeil ! - Copyright ORBIFLY Décembre 2007 - Disclaimer

ORBIFLY MET'MAP TEAM :

Programmation & Développement : Alexandra Zaïnal
Conception & Développement : Baudouin d'Aumeries
Co-Programmation & Développement : Marc-Olivier Méhu
Soutien technique & logistique : Manuel Goepfert

Contact : metmap@orbifly.com




SOURCES & CREDITS :

   NOAA